createdAt,value
2019-01-17T00:00:08.607Z,3.77
2019-01-17T00:02:42.445Z,3.67
2019-01-17T00:05:16.823Z,3.27
2019-01-17T00:07:45.670Z,3.53
2019-01-17T00:10:14.121Z,3.60
2019-01-17T00:12:54.551Z,3.63
2019-01-17T00:15:35.132Z,3.47
2019-01-17T00:18:12.570Z,3.60
2019-01-17T00:20:43.899Z,4.20
2019-01-17T00:23:24.543Z,5.00
2019-01-17T00:26:09.524Z,4.33
2019-01-17T00:28:41.080Z,4.50
2019-01-17T00:31:27.814Z,4.03
2019-01-17T00:34:12.715Z,3.97
2019-01-17T00:36:41.179Z,3.67
2019-01-17T00:39:18.587Z,3.30
2019-01-17T00:42:02.316Z,3.70
2019-01-17T00:44:36.962Z,3.23
2019-01-17T00:47:22.108Z,3.60
2019-01-17T00:49:50.557Z,3.73
2019-01-17T00:52:35.654Z,3.20
2019-01-17T00:55:04.292Z,4.10
2019-01-17T00:57:35.893Z,3.47
2019-01-17T01:00:15.229Z,2.97
2019-01-17T01:02:46.345Z,3.47
2019-01-17T01:05:14.791Z,4.00
2019-01-17T01:07:49.399Z,3.37
2019-01-17T01:10:17.844Z,4.00
2019-01-17T01:13:03.090Z,3.63
2019-01-17T01:15:31.778Z,2.77
2019-01-17T01:18:16.895Z,2.90
2019-01-17T01:20:54.447Z,3.03
2019-01-17T01:23:28.823Z,2.70
2019-01-17T01:26:09.183Z,3.13
2019-01-17T01:28:37.650Z,3.30
2019-01-17T01:31:06.190Z,3.67
2019-01-17T01:33:46.739Z,3.13
2019-01-17T01:36:30.475Z,3.93
2019-01-17T01:39:15.622Z,3.73
2019-01-17T01:41:53.309Z,3.67
2019-01-17T01:44:24.648Z,3.30
2019-01-17T01:46:59.082Z,4.10
2019-01-17T01:49:27.530Z,3.60
2019-01-17T01:51:55.987Z,3.50
2019-01-17T01:54:22.540Z,3.80
2019-01-17T01:56:49.089Z,3.87
2019-01-17T01:59:15.643Z,3.23
2019-01-17T02:01:42.179Z,3.40
2019-01-17T02:04:08.726Z,4.50
2019-01-17T02:06:35.263Z,3.70
2019-01-17T02:09:04.215Z,3.73
2019-01-17T02:11:30.750Z,3.20
2019-01-17T02:13:57.406Z,3.80
2019-01-17T02:16:24.148Z,3.70
2019-01-17T02:18:50.831Z,4.40
2019-01-17T02:21:17.369Z,4.17
2019-01-17T02:23:43.907Z,4.40
2019-01-17T02:26:10.442Z,5.33
2019-01-17T02:28:36.990Z,4.90
2019-01-17T02:31:03.527Z,5.37
2019-01-17T02:33:30.087Z,4.87
2019-01-17T02:35:56.829Z,5.43
2019-01-17T02:38:23.367Z,4.93
2019-01-17T02:40:49.926Z,5.57
2019-01-17T02:43:16.468Z,5.40
2019-01-17T02:45:43.013Z,5.30
2019-01-17T02:48:09.557Z,5.30
2019-01-17T02:50:36.111Z,5.47
2019-01-17T02:53:02.946Z,5.17
2019-01-17T02:55:29.499Z,4.70
2019-01-17T02:57:56.048Z,5.00
2019-01-17T03:00:22.614Z,4.90
2019-01-17T03:02:49.147Z,5.57
2019-01-17T03:05:15.695Z,4.90
2019-01-17T03:07:42.555Z,6.00
2019-01-17T03:10:11.006Z,4.50
2019-01-17T03:12:37.540Z,5.13
2019-01-17T03:15:04.695Z,4.40
2019-01-17T03:17:31.235Z,4.60
2019-01-17T03:19:57.787Z,4.17
2019-01-17T03:22:24.327Z,4.10
2019-01-17T03:24:50.875Z,3.63
2019-01-17T03:27:17.424Z,3.87
2019-01-17T03:29:43.968Z,3.47
2019-01-17T03:32:10.513Z,4.07
2019-01-17T03:34:37.062Z,3.77
2019-01-17T03:37:03.635Z,3.97
2019-01-17T03:39:30.175Z,3.70
2019-01-17T03:41:56.723Z,3.67
2019-01-17T03:44:23.254Z,3.57
2019-01-17T03:46:50.016Z,3.40
2019-01-17T03:49:16.553Z,2.77
2019-01-17T03:51:43.095Z,3.43
2019-01-17T03:54:09.632Z,3.57
2019-01-17T03:56:36.189Z,3.03
2019-01-17T03:59:02.839Z,3.03
2019-01-17T04:01:29.441Z,3.40
2019-01-17T04:03:55.979Z,3.13
2019-01-17T04:06:22.540Z,2.97
2019-01-17T04:08:49.080Z,3.03
2019-01-17T04:11:15.629Z,2.73
2019-01-17T04:13:42.186Z,3.20
2019-01-17T04:16:08.742Z,3.27
2019-01-17T04:18:35.280Z,2.93
2019-01-17T04:21:01.836Z,2.83
2019-01-17T04:23:28.383Z,2.87
2019-01-17T04:25:54.936Z,3.23
2019-01-17T04:28:21.462Z,3.20
2019-01-17T04:30:48.010Z,2.67
2019-01-17T04:33:14.557Z,2.80
2019-01-17T04:35:41.111Z,3.33
2019-01-17T04:38:07.649Z,2.90
2019-01-17T04:40:34.191Z,2.93
2019-01-17T04:43:00.743Z,2.73
2019-01-17T04:45:27.283Z,2.93
2019-01-17T04:47:53.835Z,2.33
2019-01-17T04:50:20.384Z,2.57
2019-01-17T04:52:46.929Z,2.40
2019-01-17T04:55:13.471Z,2.67
2019-01-17T04:57:40.129Z,2.30
2019-01-17T05:00:11.652Z,2.30
2019-01-17T05:02:38.211Z,2.40
2019-01-17T05:05:05.246Z,2.30
2019-01-17T05:07:31.795Z,2.40
2019-01-17T05:09:58.330Z,2.60
2019-01-17T05:12:24.882Z,2.63
2019-01-17T05:14:51.426Z,2.40
2019-01-17T05:17:18.115Z,2.47
2019-01-17T05:19:44.653Z,2.70
2019-01-17T05:22:11.200Z,2.53
2019-01-17T05:24:37.753Z,2.93
2019-01-17T05:27:04.300Z,2.90
2019-01-17T05:29:30.846Z,3.10
2019-01-17T05:31:57.395Z,2.47
2019-01-17T05:34:23.927Z,3.27
2019-01-17T05:36:50.471Z,3.03
2019-01-17T05:39:17.007Z,2.90
2019-01-17T05:41:43.556Z,3.10
2019-01-17T05:44:10.199Z,3.20
2019-01-17T05:46:36.748Z,3.00
2019-01-17T05:49:03.283Z,3.70
2019-01-17T05:51:29.833Z,2.80
2019-01-17T05:53:56.363Z,2.97
2019-01-17T05:56:22.902Z,2.73
2019-01-17T05:58:49.465Z,2.73
2019-01-17T06:01:16.007Z,2.60
2019-01-17T06:03:42.552Z,2.97
2019-01-17T06:06:09.109Z,2.90
2019-01-17T06:08:35.648Z,3.17
2019-01-17T06:11:02.179Z,3.10
2019-01-17T06:13:28.725Z,3.37
2019-01-17T06:15:55.663Z,3.30
2019-01-17T06:18:22.206Z,3.50
2019-01-17T06:20:49.147Z,3.20
2019-01-17T06:23:15.701Z,2.80
2019-01-17T06:25:42.249Z,3.67
2019-01-17T06:28:08.792Z,3.73
2019-01-17T06:30:35.331Z,2.97
2019-01-17T06:33:02.184Z,3.37
2019-01-17T06:35:28.716Z,3.43
2019-01-17T06:37:55.280Z,3.20
2019-01-17T06:40:23.117Z,3.27
2019-01-17T06:42:49.671Z,3.67
2019-01-17T06:45:16.800Z,3.50
2019-01-17T06:47:43.352Z,4.07
2019-01-17T06:50:10.091Z,3.70
2019-01-17T06:52:36.636Z,3.70
2019-01-17T06:55:03.871Z,3.97
2019-01-17T06:57:30.427Z,3.80
2019-01-17T06:59:56.990Z,3.67
2019-01-17T07:02:23.643Z,4.00
2019-01-17T07:04:50.178Z,3.30
2019-01-17T07:07:16.728Z,4.00
2019-01-17T07:09:43.259Z,3.77
2019-01-17T07:12:09.803Z,4.20
2019-01-17T07:14:36.340Z,3.77
2019-01-17T07:17:03.102Z,3.70
2019-01-17T07:19:29.644Z,3.40
2019-01-17T07:21:56.178Z,3.87
2019-01-17T07:24:22.732Z,3.30
2019-01-17T07:26:49.275Z,3.77
2019-01-17T07:29:15.818Z,3.87
2019-01-17T07:31:42.359Z,3.90
2019-01-17T07:34:08.915Z,3.90
2019-01-17T07:36:35.447Z,4.10
2019-01-17T07:39:03.907Z,3.77
2019-01-17T07:41:30.516Z,3.50
2019-01-17T07:43:57.131Z,4.17
2019-01-17T07:46:23.677Z,3.97
2019-01-17T07:48:50.220Z,3.90
2019-01-17T07:51:16.758Z,3.27
2019-01-17T07:53:43.307Z,3.50
2019-01-17T07:56:09.860Z,3.83
2019-01-17T07:58:36.414Z,3.43
2019-01-17T08:01:02.969Z,3.23
2019-01-17T08:03:29.520Z,3.20
2019-01-17T08:05:56.054Z,3.47
2019-01-17T08:08:22.607Z,3.50
2019-01-17T08:10:49.155Z,3.40
2019-01-17T08:13:15.703Z,3.53
2019-01-17T08:15:42.248Z,3.10
2019-01-17T08:18:08.780Z,3.13
2019-01-17T08:20:35.323Z,3.17
2019-01-17T08:23:01.861Z,2.97
2019-01-17T08:25:28.415Z,3.13
2019-01-17T08:27:54.951Z,2.93
2019-01-17T08:30:23.403Z,3.50
2019-01-17T08:32:49.959Z,2.83
2019-01-17T08:35:16.710Z,2.80
2019-01-17T08:37:43.251Z,2.90
2019-01-17T08:40:11.704Z,3.03
2019-01-17T08:42:38.240Z,3.10
2019-01-17T08:45:06.391Z,2.73
2019-01-17T08:47:32.924Z,2.90
2019-01-17T08:49:59.478Z,3.20
2019-01-17T08:52:26.019Z,2.83
2019-01-17T08:54:52.577Z,3.20
2019-01-17T08:57:19.121Z,3.43
2019-01-17T08:59:45.688Z,3.07
2019-01-17T09:02:12.261Z,2.67
2019-01-17T09:04:38.875Z,3.23
2019-01-17T09:07:05.420Z,3.17
2019-01-17T09:09:31.979Z,3.03
2019-01-17T09:11:58.516Z,3.27
2019-01-17T09:14:25.076Z,3.07
2019-01-17T09:16:51.642Z,2.53
2019-01-17T09:19:18.179Z,2.30
2019-01-17T09:21:44.730Z,2.60
2019-01-17T09:24:11.280Z,2.10
2019-01-17T09:26:37.822Z,2.60
2019-01-17T09:29:04.358Z,2.20
2019-01-17T09:31:30.903Z,2.43
2019-01-17T09:33:57.443Z,2.20
2019-01-17T09:36:23.992Z,2.10
2019-01-17T09:38:50.535Z,2.40
2019-01-17T09:41:17.109Z,2.20
2019-01-17T09:43:43.652Z,2.27
2019-01-17T09:46:10.203Z,2.00
2019-01-17T09:48:36.738Z,1.90
2019-01-17T09:51:03.304Z,2.07
2019-01-17T09:53:29.928Z,2.07
2019-01-17T09:55:56.487Z,2.30
2019-01-17T09:58:23.028Z,2.27
2019-01-17T10:00:49.592Z,1.70
2019-01-17T10:03:16.233Z,2.27
2019-01-17T10:05:42.774Z,2.23
2019-01-17T10:08:09.324Z,2.10
2019-01-17T10:10:35.871Z,2.20
2019-01-17T10:13:02.511Z,1.70
2019-01-17T10:15:33.706Z,1.80
2019-01-17T10:18:14.096Z,1.90
2019-01-17T10:21:00.913Z,1.83
2019-01-17T10:23:38.280Z,1.73
2019-01-17T10:26:09.518Z,1.57
2019-01-17T10:28:37.972Z,1.60
2019-01-17T10:31:06.414Z,1.50
2019-01-17T10:33:34.861Z,1.73
2019-01-17T10:36:06.115Z,1.53
2019-01-17T10:38:37.391Z,1.47
2019-01-17T10:41:05.855Z,1.60
2019-01-17T10:43:51.198Z,1.50
2019-01-17T10:46:22.570Z,1.20
2019-01-17T10:48:53.790Z,1.40
2019-01-17T10:51:40.663Z,1.50
2019-01-17T10:54:12.030Z,1.10
2019-01-17T10:56:41.460Z,1.10
2019-01-17T10:59:13.382Z,1.53
2019-01-17T11:01:41.853Z,1.03
2019-01-17T11:04:19.119Z,1.40
2019-01-17T11:06:50.583Z,1.10
2019-01-17T11:09:19.027Z,1.07
2019-01-17T11:11:47.484Z,1.13
2019-01-17T11:14:15.919Z,1.10
2019-01-17T11:17:02.459Z,1.60
2019-01-17T11:19:33.686Z,1.47
2019-01-17T11:22:02.131Z,1.20
2019-01-17T11:24:39.621Z,1.30
2019-01-17T11:27:17.296Z,1.10
2019-01-17T11:29:45.742Z,1.20
2019-01-17T11:32:14.186Z,0.90
2019-01-17T11:34:45.429Z,1.60
2019-01-17T11:37:16.956Z,1.40
2019-01-17T11:39:45.396Z,1.20
2019-01-17T11:42:19.704Z,1.20
2019-01-17T11:44:50.935Z,1.30
2019-01-17T11:47:19.403Z,1.20
2019-01-17T11:49:53.831Z,1.40
2019-01-17T11:52:25.091Z,1.50
2019-01-17T11:54:59.316Z,1.10
2019-01-17T11:57:30.611Z,1.30
2019-01-17T11:59:59.065Z,1.27
2019-01-17T12:02:27.504Z,1.23
2019-01-17T12:04:53.957Z,1.30
2019-01-17T12:07:20.599Z,1.20
2019-01-17T12:09:47.141Z,1.70
2019-01-17T12:12:15.579Z,1.30
2019-01-17T12:14:42.426Z,1.60
2019-01-17T12:17:08.963Z,1.10
2019-01-17T12:19:35.507Z,1.40
2019-01-17T12:22:02.344Z,1.47
2019-01-17T12:24:29.258Z,1.40
2019-01-17T12:26:55.796Z,1.47
2019-01-17T12:29:22.349Z,1.33
2019-01-17T12:31:48.892Z,1.17
2019-01-17T12:34:15.443Z,1.17
2019-01-17T12:36:41.976Z,1.17
2019-01-17T12:39:10.231Z,1.30
2019-01-17T12:41:36.830Z,1.40
2019-01-17T12:44:03.689Z,1.20
2019-01-17T12:46:30.219Z,1.17
2019-01-17T12:48:56.768Z,1.00
2019-01-17T12:51:23.308Z,1.07
2019-01-17T12:53:49.851Z,0.90
2019-01-17T12:56:16.397Z,1.07
2019-01-17T12:58:42.948Z,1.10
2019-01-17T13:01:09.520Z,1.20
2019-01-17T13:03:36.061Z,1.00
2019-01-17T13:06:03.135Z,1.20
2019-01-17T13:08:29.678Z,1.00
2019-01-17T13:10:56.277Z,0.90
2019-01-17T13:13:22.851Z,1.60
2019-01-17T13:15:49.399Z,1.00
2019-01-17T13:18:15.995Z,1.30
2019-01-17T13:20:42.675Z,1.20
2019-01-17T13:23:09.207Z,1.10
2019-01-17T13:25:35.961Z,1.10
2019-01-17T13:28:02.599Z,1.03
2019-01-17T13:30:29.163Z,1.10
2019-01-17T13:32:55.699Z,1.00
2019-01-17T13:35:22.586Z,1.20
2019-01-17T13:37:49.119Z,1.13
2019-01-17T13:40:17.580Z,1.00
2019-01-17T13:42:44.140Z,1.20
2019-01-17T13:45:12.084Z,1.07
2019-01-17T13:47:38.618Z,0.90
2019-01-17T13:50:06.875Z,1.13
2019-01-17T13:52:33.402Z,0.90
2019-01-17T13:54:59.957Z,1.30
2019-01-17T13:57:26.499Z,1.17
2019-01-17T13:59:53.061Z,1.90
2019-01-17T14:02:19.604Z,1.00
2019-01-17T14:04:46.146Z,0.87
2019-01-17T14:07:12.695Z,1.30
2019-01-17T14:09:39.230Z,1.47
2019-01-17T14:12:05.799Z,1.70
2019-01-17T14:14:32.347Z,1.20
2019-01-17T14:16:58.906Z,1.37
2019-01-17T14:19:25.442Z,1.60
2019-01-17T14:21:51.984Z,1.10
2019-01-17T14:24:18.522Z,1.10
2019-01-17T14:26:45.079Z,0.93
2019-01-17T14:29:11.616Z,1.10
2019-01-17T14:31:38.168Z,1.20
2019-01-17T14:34:04.707Z,1.03
2019-01-17T14:36:31.312Z,0.80
2019-01-17T14:38:57.843Z,1.00
2019-01-17T14:41:24.390Z,1.00
2019-01-17T14:43:50.949Z,0.83
2019-01-17T14:46:17.500Z,1.00
2019-01-17T14:48:44.036Z,1.00
2019-01-17T14:51:10.587Z,1.17
2019-01-17T14:53:37.251Z,1.30
2019-01-17T14:56:04.101Z,1.33
2019-01-17T14:58:30.637Z,1.20
2019-01-17T15:00:57.202Z,1.03
2019-01-17T15:03:23.743Z,1.00
2019-01-17T15:05:50.311Z,1.00
2019-01-17T15:08:16.856Z,1.10
2019-01-17T15:10:43.407Z,1.10
2019-01-17T15:13:10.047Z,1.10
2019-01-17T15:15:37.596Z,1.20
2019-01-17T15:18:04.643Z,1.20
2019-01-17T15:20:31.175Z,1.10
2019-01-17T15:22:58.138Z,1.13
2019-01-17T15:25:24.676Z,7.17
2019-01-17T15:27:51.220Z,1.10
2019-01-17T15:30:18.858Z,1.10
2019-01-17T15:32:45.703Z,1.20
2019-01-17T15:35:12.242Z,1.03
2019-01-17T15:37:38.787Z,0.93
2019-01-17T15:40:10.313Z,1.00
2019-01-17T15:42:36.867Z,0.90
2019-01-17T15:45:04.722Z,0.87
2019-01-17T15:47:31.257Z,1.10
2019-01-17T15:49:57.788Z,1.00
2019-01-17T15:52:24.337Z,1.30
2019-01-17T15:54:50.884Z,0.90
2019-01-17T15:57:17.441Z,1.10
2019-01-17T15:59:44.003Z,1.27
2019-01-17T16:02:10.555Z,1.17
2019-01-17T16:04:37.104Z,0.83
2019-01-17T16:07:03.655Z,1.20
2019-01-17T16:09:30.201Z,1.40
2019-01-17T16:11:56.760Z,1.30
2019-01-17T16:14:23.306Z,1.33
2019-01-17T16:16:49.864Z,1.53
2019-01-17T16:19:16.509Z,1.40
2019-01-17T16:21:43.060Z,1.57
2019-01-17T16:24:09.606Z,1.23
2019-01-17T16:26:36.160Z,1.80
2019-01-17T16:29:02.695Z,1.63
2019-01-17T16:31:29.249Z,1.60
2019-01-17T16:33:55.819Z,1.47
2019-01-17T16:36:22.367Z,1.10
2019-01-17T16:38:49.334Z,1.50
2019-01-17T16:41:15.987Z,1.50
2019-01-17T16:43:42.550Z,1.27
2019-01-17T16:46:09.095Z,1.37
2019-01-17T16:48:35.660Z,1.27
2019-01-17T16:51:02.295Z,1.30
2019-01-17T16:53:28.852Z,1.50
2019-01-17T16:55:55.387Z,1.30
2019-01-17T16:58:21.951Z,1.43
2019-01-17T17:00:48.501Z,1.27
2019-01-17T17:03:15.058Z,1.60
2019-01-17T17:05:41.605Z,1.70
2019-01-17T17:08:08.155Z,1.43
2019-01-17T17:10:34.699Z,1.17
2019-01-17T17:13:01.253Z,1.00
2019-01-17T17:15:27.791Z,1.40
2019-01-17T17:17:54.360Z,1.00
2019-01-17T17:20:22.103Z,1.20
2019-01-17T17:22:48.759Z,1.10
2019-01-17T17:25:15.303Z,1.10
2019-01-17T17:27:41.867Z,1.10
2019-01-17T17:30:13.062Z,1.10
2019-01-17T17:32:39.621Z,1.23
2019-01-17T17:35:06.258Z,1.20
2019-01-17T17:37:33.136Z,1.30
2019-01-17T17:39:59.780Z,1.20
2019-01-17T17:42:26.332Z,1.20
2019-01-17T17:44:52.875Z,1.23
2019-01-17T17:47:19.430Z,1.20
2019-01-17T17:49:46.078Z,1.10
2019-01-17T17:52:12.971Z,1.20
2019-01-17T17:54:39.518Z,1.40
2019-01-17T17:57:06.078Z,1.50
2019-01-17T17:59:32.639Z,1.57
2019-01-17T18:02:00.218Z,1.87
2019-01-17T18:04:26.855Z,1.60
2019-01-17T18:06:53.404Z,1.47
2019-01-17T18:09:19.961Z,2.33
2019-01-17T18:11:46.500Z,2.40
2019-01-17T18:14:13.058Z,2.10
2019-01-17T18:16:39.616Z,2.40
2019-01-17T18:19:06.175Z,2.37
2019-01-17T18:21:32.720Z,2.60
2019-01-17T18:23:59.291Z,2.27
2019-01-17T18:26:25.842Z,2.30
2019-01-17T18:28:52.474Z,2.23
2019-01-17T18:31:19.100Z,2.73
2019-01-17T18:33:45.658Z,3.43
2019-01-17T18:36:12.235Z,2.57
2019-01-17T18:38:38.788Z,2.63
2019-01-17T18:41:05.440Z,2.30
2019-01-17T18:43:32.059Z,2.60
2019-01-17T18:45:58.617Z,2.60
2019-01-17T18:48:25.162Z,2.37
2019-01-17T18:50:51.719Z,2.43
2019-01-17T18:53:18.287Z,2.70
2019-01-17T18:55:44.834Z,2.43
2019-01-17T18:58:15.503Z,2.77
2019-01-17T19:00:39.870Z,2.60
2019-01-17T19:03:06.850Z,2.70
2019-01-17T19:05:33.580Z,2.70
2019-01-17T19:08:00.140Z,3.27
2019-01-17T19:10:26.683Z,2.70
2019-01-17T19:12:53.443Z,2.50
2019-01-17T19:15:21.394Z,3.03
2019-01-17T19:17:47.950Z,2.60
2019-01-17T19:20:15.596Z,2.37
2019-01-17T19:22:42.151Z,2.60
2019-01-17T19:25:08.809Z,2.83
2019-01-17T19:27:35.359Z,2.63
2019-01-17T19:30:03.892Z,2.70
2019-01-17T19:32:30.667Z,2.47
2019-01-17T19:34:57.215Z,2.90
2019-01-17T19:37:23.756Z,2.87
2019-01-17T19:39:50.307Z,2.93
2019-01-17T19:42:16.852Z,3.00
2019-01-17T19:44:43.408Z,3.03
2019-01-17T19:47:09.962Z,2.80
2019-01-17T19:49:36.522Z,2.40
2019-01-17T19:52:03.872Z,2.90
2019-01-17T19:54:30.427Z,2.40
2019-01-17T19:56:56.983Z,2.70
2019-01-17T19:59:23.584Z,2.70
2019-01-17T20:01:50.228Z,3.17
2019-01-17T20:04:16.839Z,3.00
2019-01-17T20:06:43.454Z,2.90
2019-01-17T20:09:10.925Z,2.67
2019-01-17T20:11:37.472Z,2.67
2019-01-17T20:14:04.023Z,2.60
2019-01-17T20:16:30.575Z,2.83
2019-01-17T20:18:57.140Z,2.80
2019-01-17T20:21:23.683Z,2.10
2019-01-17T20:23:50.243Z,2.50
2019-01-17T20:26:16.800Z,2.60
2019-01-17T20:28:43.349Z,2.47
2019-01-17T20:31:09.897Z,1.90
2019-01-17T20:33:36.457Z,2.27
2019-01-17T20:36:03.392Z,2.43
2019-01-17T20:38:29.964Z,2.43
2019-01-17T20:40:58.315Z,2.83
2019-01-17T20:43:24.975Z,2.13
2019-01-17T20:45:51.527Z,1.67
2019-01-17T20:48:18.080Z,1.80
2019-01-17T20:50:44.636Z,1.50
2019-01-17T20:53:11.192Z,1.77
2019-01-17T20:55:37.761Z,1.60
2019-01-17T20:58:04.296Z,1.87
2019-01-17T21:00:35.759Z,1.70
2019-01-17T21:03:02.825Z,1.60
2019-01-17T21:05:29.373Z,1.97
2019-01-17T21:07:56.120Z,2.20
2019-01-17T21:10:22.672Z,2.27
2019-01-17T21:12:49.232Z,2.47
2019-01-17T21:15:16.022Z,2.40
2019-01-17T21:17:42.555Z,2.77
2019-01-17T21:20:12.808Z,3.20
2019-01-17T21:22:39.915Z,3.57
2019-01-17T21:25:14.284Z,2.70
2019-01-17T21:27:43.539Z,2.07
2019-01-17T21:30:14.055Z,2.00
2019-01-17T21:32:40.621Z,2.07
2019-01-17T21:35:08.283Z,1.97
2019-01-17T21:37:34.839Z,1.50
2019-01-17T21:40:01.402Z,1.90
2019-01-17T21:42:27.935Z,1.80
2019-01-17T21:44:54.823Z,1.90
2019-01-17T21:47:21.477Z,2.30
2019-01-17T21:49:48.045Z,2.20
2019-01-17T21:52:14.583Z,2.10
2019-01-17T21:54:41.148Z,2.13
2019-01-17T21:57:07.696Z,2.50
2019-01-17T21:59:34.268Z,2.30
2019-01-17T22:02:00.817Z,2.00
2019-01-17T22:04:27.359Z,2.13
2019-01-17T22:06:53.917Z,2.17
2019-01-17T22:09:20.482Z,2.03
2019-01-17T22:11:47.026Z,2.00
2019-01-17T22:14:13.578Z,1.87
2019-01-17T22:16:40.124Z,1.63
2019-01-17T22:19:06.674Z,2.20
2019-01-17T22:21:33.241Z,2.60
2019-01-17T22:23:59.775Z,2.53
2019-01-17T22:26:26.324Z,2.53
2019-01-17T22:28:52.855Z,2.80
2019-01-17T22:31:19.420Z,2.07
2019-01-17T22:33:45.959Z,2.80
2019-01-17T22:36:12.534Z,2.40
2019-01-17T22:38:39.078Z,2.20
2019-01-17T22:41:05.722Z,2.17
2019-01-17T22:43:32.267Z,2.43
2019-01-17T22:45:58.821Z,2.73
2019-01-17T22:48:25.352Z,3.17
2019-01-17T22:50:51.907Z,2.70
2019-01-17T22:53:18.447Z,2.20
2019-01-17T22:55:44.995Z,2.70
2019-01-17T22:58:11.539Z,2.67
2019-01-17T23:00:45.034Z,2.93
2019-01-17T23:03:11.579Z,3.07
2019-01-17T23:05:39.140Z,3.43
2019-01-17T23:08:05.680Z,3.60
2019-01-17T23:10:32.215Z,3.00
2019-01-17T23:12:58.763Z,2.87
2019-01-17T23:15:25.300Z,2.90
2019-01-17T23:17:51.859Z,2.80
2019-01-17T23:20:18.398Z,2.97
2019-01-17T23:22:44.950Z,2.93
2019-01-17T23:25:11.486Z,2.87
2019-01-17T23:27:38.045Z,2.67
2019-01-17T23:30:06.528Z,2.27
2019-01-17T23:32:33.243Z,2.40
2019-01-17T23:34:59.836Z,2.33
2019-01-17T23:37:26.402Z,2.53
2019-01-17T23:39:52.952Z,2.47
2019-01-17T23:42:19.611Z,3.60
2019-01-17T23:44:46.140Z,2.93
2019-01-17T23:47:12.688Z,2.73
2019-01-17T23:49:39.232Z,2.53
2019-01-17T23:52:05.783Z,2.60
2019-01-17T23:54:32.327Z,2.50
2019-01-17T23:56:58.875Z,3.17
2019-01-17T23:59:25.441Z,2.47
